Steprock, Arkansas
Current Conditions -  °F | °C
As of 11:32 PM on Saturday 25 Oct 2014 (Local Time) from KSRC Reporting Station
Haze Haze  
Wind Chill: 61°   Ceiling: Unl
Heat Index: 61°   Visibility: 2.5mi
Dew Point: 61°   Wind: 3mph
Humidity: 100%   Direction: 250°WSW
Pressure: 30.03"   Gusts: NA
Location:  35.43°N, 91.69°W
Report Text: KSRC 260432Z AUTO 25003KT 2 1/2SM BR CLR 16/16 A3003 RMK AO2 VIS 2V3 TSNO
Loading
Personal Weather Stations






























Interactive Weather Map
Tropical Storm Tracking
New forecast layout! Learn more

10-Day Weather Forecast

Advertisements
Track Severe Weather on mobile